Hovedside
METAR-TAF:

METAR-TAF

Lufthavner :

N'Djamena internasjonale lufthavn

N'Djamena, Tsjad

breddegrad: 12-08N, lengdegrad: 015-02E, høyde over havet: 295 m

Gjeldene værobservasjon

Denne rapporten ble laget for 54 minutter siden, klokken 15:00 UTC
Vind 10 kt fra Nord, skiftende mellom Nord-nordvest og Nord-nordøst
Temperatur 38°C
Luftfuktighet 9%
Trykk 1008 hPa
Sikt: 8000 m

METAR: FTTJ 311500Z 35010KT 330V030 8000 NSC 38/M01 Q1008 NOSIG

Tid: 16:54 (15:54 UTC)

Varsel

Denne rapporten ble laget for 4 timer og 54 minutter siden, klokken 11:00 UTC
Varsel gyldig fra 31. klokken 12 UTC til 01. klokken 18 UTC
Vind 10 kt fra Nord-nordøst
Sikt: 8000 m
Midlertidig
fra 31. klokken 16 UTC til 31. klokken 22 UTC
Sikt: 3000 m
mye støv
Midlertidig
fra 01. klokken 04 UTC til 01. klokken 09 UTC
Sikt: 3000 m
mye støv

TAF: FTTJ 311100Z 3112/0118 03010KT 8000 NSC TEMPO 3116/3122 3000 DU TEMPO 0104/0109 3000 DU

Værobservasjoner og værvarsel for over 4000 flyplasser (METAR- og TAF-rapporter).

Tilgjengelige stasjoner er representert av de røde og gule prikkene på kartet.

Hold musepekeren over prikken for å se navnet på stasjonen.

Klikk så for å se værobservasjoner og -varsler.

For å forandre kartet kan du klikke på den grønne knappen med svart kryss for å zoome inn, på den grønne knappen med strek for å zoome ut, eller på de grønne pilene for å se tilstøtende kart.


METAR-TAF: